sensor_id;sensor_type;location;lat;lon;timestamp;temperature;humidity
34099;DHT22;20374;49.474;10.944;2023-04-24T00:02:11;10.60;99.90
34099;DHT22;20374;49.474;10.944;2023-04-24T00:04:38;10.50;99.90
34099;DHT22;20374;49.474;10.944;2023-04-24T00:07:06;10.40;99.90
34099;DHT22;20374;49.474;10.944;2023-04-24T00:09:33;10.40;99.90
34099;DHT22;20374;49.474;10.944;2023-04-24T00:11:59;10.30;99.90
34099;DHT22;20374;49.474;10.944;2023-04-24T00:14:25;10.40;99.90
34099;DHT22;20374;49.474;10.944;2023-04-24T00:16:51;10.30;99.90
34099;DHT22;20374;49.474;10.944;2023-04-24T00:19:18;10.30;99.90
34099;DHT22;20374;49.474;10.944;2023-04-24T00:21:49;10.30;99.90
34099;DHT22;20374;49.474;10.944;2023-04-24T00:24:16;10.30;99.90
34099;DHT22;20374;49.474;10.944;2023-04-24T00:26:42;10.30;99.90
34099;DHT22;20374;49.474;10.944;2023-04-24T00:29:09;10.30;99.90
34099;DHT22;20374;49.474;10.944;2023-04-24T00:31:35;10.20;99.90
34099;DHT22;20374;49.474;10.944;2023-04-24T00:34:03;10.20;99.90
34099;DHT22;20374;49.474;10.944;2023-04-24T00:36:29;10.30;99.90
34099;DHT22;20374;49.474;10.944;2023-04-24T00:38:57;10.30;99.90
34099;DHT22;20374;49.474;10.944;2023-04-24T00:41:27;10.20;99.90
34099;DHT22;20374;49.474;10.944;2023-04-24T00:43:53;10.10;99.90
34099;DHT22;20374;49.474;10.944;2023-04-24T00:46:19;10.10;99.90
34099;DHT22;20374;49.474;10.944;2023-04-24T00:48:46;10.30;99.90
34099;DHT22;20374;49.474;10.944;2023-04-24T00:51:12;10.10;99.90
34099;DHT22;20374;49.474;10.944;2023-04-24T00:53:38;10.00;99.90
34099;DHT22;20374;49.474;10.944;2023-04-24T00:56:05;10.00;99.90
34099;DHT22;20374;49.474;10.944;2023-04-24T00:58:31;10.00;99.90
34099;DHT22;20374;49.474;10.944;2023-04-24T01:00:58;10.00;99.90
34099;DHT22;20374;49.474;10.944;2023-04-24T01:03:28;10.10;99.90
34099;DHT22;20374;49.474;10.944;2023-04-24T01:05:55;10.10;99.90
34099;DHT22;20374;49.474;10.944;2023-04-24T01:08:23;10.10;99.90
34099;DHT22;20374;49.474;10.944;2023-04-24T01:10:52;10.10;99.90
34099;DHT22;20374;49.474;10.944;2023-04-24T01:13:20;10.00;99.90
34099;DHT22;20374;49.474;10.944;2023-04-24T01:15:47;10.20;99.90
34099;DHT22;20374;49.474;10.944;2023-04-24T01:18:14;10.00;99.90
34099;DHT22;20374;49.474;10.944;2023-04-24T01:20:42;10.00;99.90
34099;DHT22;20374;49.474;10.944;2023-04-24T01:23:10;10.00;99.90
34099;DHT22;20374;49.474;10.944;2023-04-24T01:25:36;9.90;99.90
34099;DHT22;20374;49.474;10.944;2023-04-24T01:28:03;9.90;99.90
34099;DHT22;20374;49.474;10.944;2023-04-24T01:30:32;9.90;99.90
34099;DHT22;20374;49.474;10.944;2023-04-24T01:32:58;9.90;99.90
34099;DHT22;20374;49.474;10.944;2023-04-24T01:35:25;9.90;99.90
34099;DHT22;20374;49.474;10.944;2023-04-24T01:37:51;9.90;99.90
34099;DHT22;20374;49.474;10.944;2023-04-24T01:40:17;9.90;99.90
34099;DHT22;20374;49.474;10.944;2023-04-24T01:42:43;9.90;99.90
34099;DHT22;20374;49.474;10.944;2023-04-24T01:45:11;9.90;99.90
34099;DHT22;20374;49.474;10.944;2023-04-24T01:47:37;9.80;99.90
34099;DHT22;20374;49.474;10.944;2023-04-24T01:50:05;9.80;99.90
34099;DHT22;20374;49.474;10.944;2023-04-24T01:52:31;9.90;99.90
34099;DHT22;20374;49.474;10.944;2023-04-24T01:55:03;9.90;99.90
34099;DHT22;20374;49.474;10.944;2023-04-24T01:57:30;9.90;99.90
34099;DHT22;20374;49.474;10.944;2023-04-24T01:59:57;9.90;99.90
34099;DHT22;20374;49.474;10.944;2023-04-24T02:02:23;9.90;99.90
34099;DHT22;20374;49.474;10.944;2023-04-24T02:04:56;9.80;99.90
34099;DHT22;20374;49.474;10.944;2023-04-24T02:07:22;9.80;99.90
34099;DHT22;20374;49.474;10.944;2023-04-24T02:09:49;9.80;99.90
34099;DHT22;20374;49.474;10.944;2023-04-24T02:12:15;9.80;99.90
34099;DHT22;20374;49.474;10.944;2023-04-24T02:14:43;9.80;99.90
34099;DHT22;20374;49.474;10.944;2023-04-24T02:17:10;9.70;99.90
34099;DHT22;20374;49.474;10.944;2023-04-24T02:19:40;9.80;99.90
34099;DHT22;20374;49.474;10.944;2023-04-24T02:22:06;9.70;99.90
34099;DHT22;20374;49.474;10.944;2023-04-24T02:24:33;9.70;99.90
34099;DHT22;20374;49.474;10.944;2023-04-24T02:27:00;9.80;99.90
34099;DHT22;20374;49.474;10.944;2023-04-24T02:29:28;9.80;99.90
34099;DHT22;20374;49.474;10.944;2023-04-24T02:31:54;9.80;99.90
34099;DHT22;20374;49.474;10.944;2023-04-24T02:34:20;9.80;99.90
34099;DHT22;20374;49.474;10.944;2023-04-24T02:36:46;9.80;99.90
34099;DHT22;20374;49.474;10.944;2023-04-24T02:39:14;9.80;99.90
34099;DHT22;20374;49.474;10.944;2023-04-24T02:41:45;9.80;99.90
34099;DHT22;20374;49.474;10.944;2023-04-24T02:44:11;9.80;99.90
34099;DHT22;20374;49.474;10.944;2023-04-24T02:46:37;9.90;99.90
34099;DHT22;20374;49.474;10.944;2023-04-24T02:49:03;9.80;99.90
34099;DHT22;20374;49.474;10.944;2023-04-24T02:51:30;9.70;99.90
34099;DHT22;20374;49.474;10.944;2023-04-24T02:53:57;9.80;99.90
34099;DHT22;20374;49.474;10.944;2023-04-24T02:56:23;9.70;99.90
34099;DHT22;20374;49.474;10.944;2023-04-24T02:58:49;9.60;99.90
34099;DHT22;20374;49.474;10.944;2023-04-24T03:01:15;9.80;99.90
34099;DHT22;20374;49.474;10.944;2023-04-24T03:03:41;9.60;99.90
34099;DHT22;20374;49.474;10.944;2023-04-24T03:06:07;9.70;99.90
34099;DHT22;20374;49.474;10.944;2023-04-24T03:08:33;9.70;99.90
34099;DHT22;20374;49.474;10.944;2023-04-24T03:11:00;9.60;99.90
34099;DHT22;20374;49.474;10.944;2023-04-24T03:13:26;9.60;99.90
34099;DHT22;20374;49.474;10.944;2023-04-24T03:15:52;9.60;99.90
34099;DHT22;20374;49.474;10.944;2023-04-24T03:18:20;9.60;99.90
34099;DHT22;20374;49.474;10.944;2023-04-24T03:20:47;9.50;99.90
34099;DHT22;20374;49.474;10.944;2023-04-24T03:23:14;9.50;99.90
34099;DHT22;20374;49.474;10.944;2023-04-24T03:25:43;9.40;99.90
34099;DHT22;20374;49.474;10.944;2023-04-24T03:28:10;9.50;99.90
34099;DHT22;20374;49.474;10.944;2023-04-24T03:30:40;9.50;99.90
34099;DHT22;20374;49.474;10.944;2023-04-24T03:33:07;9.40;99.90
34099;DHT22;20374;49.474;10.944;2023-04-24T03:35:37;9.50;99.90
34099;DHT22;20374;49.474;10.944;2023-04-24T03:38:08;9.50;99.90
34099;DHT22;20374;49.474;10.944;2023-04-24T03:40:36;9.60;99.90
34099;DHT22;20374;49.474;10.944;2023-04-24T03:43:10;9.60;99.90
34099;DHT22;20374;49.474;10.944;2023-04-24T03:45:38;9.50;99.90
34099;DHT22;20374;49.474;10.944;2023-04-24T03:48:04;9.50;99.90
34099;DHT22;20374;49.474;10.944;2023-04-24T03:50:31;9.40;99.90
34099;DHT22;20374;49.474;10.944;2023-04-24T03:52:58;9.40;99.90
34099;DHT22;20374;49.474;10.944;2023-04-24T03:55:34;9.40;99.90
34099;DHT22;20374;49.474;10.944;2023-04-24T03:58:00;9.40;99.90
34099;DHT22;20374;49.474;10.944;2023-04-24T04:00:26;9.50;99.90
34099;DHT22;20374;49.474;10.944;2023-04-24T04:03:11;9.40;99.90
34099;DHT22;20374;49.474;10.944;2023-04-24T04:05:37;9.40;99.90
34099;DHT22;20374;49.474;10.944;2023-04-24T04:08:03;9.40;99.90
34099;DHT22;20374;49.474;10.944;2023-04-24T04:10:29;9.50;99.90
34099;DHT22;20374;49.474;10.944;2023-04-24T04:12:55;9.40;99.90
34099;DHT22;20374;49.474;10.944;2023-04-24T04:15:21;9.40;99.90
34099;DHT22;20374;49.474;10.944;2023-04-24T04:17:49;9.40;99.90
34099;DHT22;20374;49.474;10.944;2023-04-24T04:20:15;9.30;99.90
34099;DHT22;20374;49.474;10.944;2023-04-24T04:22:41;9.40;99.90
34099;DHT22;20374;49.474;10.944;2023-04-24T04:25:10;9.30;99.90
34099;DHT22;20374;49.474;10.944;2023-04-24T04:27:37;9.30;99.90
34099;DHT22;20374;49.474;10.944;2023-04-24T04:30:09;9.30;99.90
34099;DHT22;20374;49.474;10.944;2023-04-24T04:32:45;9.30;99.90
34099;DHT22;20374;49.474;10.944;2023-04-24T04:35:11;9.30;99.90
34099;DHT22;20374;49.474;10.944;2023-04-24T04:37:37;9.30;99.90
34099;DHT22;20374;49.474;10.944;2023-04-24T04:40:15;9.30;99.90
34099;DHT22;20374;49.474;10.944;2023-04-24T04:42:50;9.30;99.90
34099;DHT22;20374;49.474;10.944;2023-04-24T04:45:19;9.30;99.90
34099;DHT22;20374;49.474;10.944;2023-04-24T04:48:05;9.50;99.90
34099;DHT22;20374;49.474;10.944;2023-04-24T04:50:34;9.40;99.90
34099;DHT22;20374;49.474;10.944;2023-04-24T04:53:05;9.40;99.90
34099;DHT22;20374;49.474;10.944;2023-04-24T04:55:34;9.30;99.90
34099;DHT22;20374;49.474;10.944;2023-04-24T04:58:17;9.40;99.90
34099;DHT22;20374;49.474;10.944;2023-04-24T05:00:45;9.40;99.90
34099;DHT22;20374;49.474;10.944;2023-04-24T05:03:21;9.30;99.90
34099;DHT22;20374;49.474;10.944;2023-04-24T05:05:51;9.40;99.90
34099;DHT22;20374;49.474;10.944;2023-04-24T05:08:18;9.40;99.90
34099;DHT22;20374;49.474;10.944;2023-04-24T05:10:44;9.40;99.90
34099;DHT22;20374;49.474;10.944;2023-04-24T05:13:10;9.60;99.90
34099;DHT22;20374;49.474;10.944;2023-04-24T05:15:40;9.50;99.90
34099;DHT22;20374;49.474;10.944;2023-04-24T05:18:06;9.50;99.90
34099;DHT22;20374;49.474;10.944;2023-04-24T05:20:32;9.60;99.90
34099;DHT22;20374;49.474;10.944;2023-04-24T05:22:59;9.70;99.90
34099;DHT22;20374;49.474;10.944;2023-04-24T05:25:26;9.70;99.90
34099;DHT22;20374;49.474;10.944;2023-04-24T05:28:00;9.70;99.90
34099;DHT22;20374;49.474;10.944;2023-04-24T05:30:26;9.60;99.90
34099;DHT22;20374;49.474;10.944;2023-04-24T05:32:54;9.70;99.90
34099;DHT22;20374;49.474;10.944;2023-04-24T05:35:20;9.80;99.90
34099;DHT22;20374;49.474;10.944;2023-04-24T05:37:46;9.80;99.90
34099;DHT22;20374;49.474;10.944;2023-04-24T05:40:13;9.80;99.90
34099;DHT22;20374;49.474;10.944;2023-04-24T05:42:38;9.80;99.90
34099;DHT22;20374;49.474;10.944;2023-04-24T05:45:05;9.90;99.90
34099;DHT22;20374;49.474;10.944;2023-04-24T05:47:31;10.00;99.90
34099;DHT22;20374;49.474;10.944;2023-04-24T05:49:58;10.00;99.90
34099;DHT22;20374;49.474;10.944;2023-04-24T05:52:24;10.20;99.90
34099;DHT22;20374;49.474;10.944;2023-04-24T05:54:50;10.20;99.90
34099;DHT22;20374;49.474;10.944;2023-04-24T05:57:23;10.30;99.90
34099;DHT22;20374;49.474;10.944;2023-04-24T05:59:53;10.40;99.90
34099;DHT22;20374;49.474;10.944;2023-04-24T06:02:20;10.50;99.90
34099;DHT22;20374;49.474;10.944;2023-04-24T06:04:46;10.60;99.90
34099;DHT22;20374;49.474;10.944;2023-04-24T06:07:12;10.60;99.90
34099;DHT22;20374;49.474;10.944;2023-04-24T06:09:40;10.60;99.90
34099;DHT22;20374;49.474;10.944;2023-04-24T06:12:06;10.60;99.90
34099;DHT22;20374;49.474;10.944;2023-04-24T06:14:47;10.60;99.90
34099;DHT22;20374;49.474;10.944;2023-04-24T06:17:18;10.60;99.90
34099;DHT22;20374;49.474;10.944;2023-04-24T06:19:45;10.60;99.90
34099;DHT22;20374;49.474;10.944;2023-04-24T06:22:12;10.60;99.90
34099;DHT22;20374;49.474;10.944;2023-04-24T06:24:39;10.50;99.90
34099;DHT22;20374;49.474;10.944;2023-04-24T06:27:05;10.30;99.90
34099;DHT22;20374;49.474;10.944;2023-04-24T06:29:33;10.20;99.90
34099;DHT22;20374;49.474;10.944;2023-04-24T06:31:59;10.00;99.90
34099;DHT22;20374;49.474;10.944;2023-04-24T06:34:25;9.80;99.90
34099;DHT22;20374;49.474;10.944;2023-04-24T06:36:51;9.60;99.90
34099;DHT22;20374;49.474;10.944;2023-04-24T06:39:17;9.50;99.90
34099;DHT22;20374;49.474;10.944;2023-04-24T06:41:43;9.50;99.90
34099;DHT22;20374;49.474;10.944;2023-04-24T06:44:18;9.50;99.90
34099;DHT22;20374;49.474;10.944;2023-04-24T06:46:44;9.50;99.90
34099;DHT22;20374;49.474;10.944;2023-04-24T06:49:10;9.50;99.90
34099;DHT22;20374;49.474;10.944;2023-04-24T06:51:36;9.60;99.90
34099;DHT22;20374;49.474;10.944;2023-04-24T06:54:02;9.60;99.90
34099;DHT22;20374;49.474;10.944;2023-04-24T06:56:28;9.60;99.90
34099;DHT22;20374;49.474;10.944;2023-04-24T06:58:57;9.70;99.90
34099;DHT22;20374;49.474;10.944;2023-04-24T07:01:23;9.80;99.90
34099;DHT22;20374;49.474;10.944;2023-04-24T07:03:50;9.80;99.90
34099;DHT22;20374;49.474;10.944;2023-04-24T07:06:16;9.90;99.90
34099;DHT22;20374;49.474;10.944;2023-04-24T07:08:44;10.10;99.90
34099;DHT22;20374;49.474;10.944;2023-04-24T07:11:10;10.30;99.90
34099;DHT22;20374;49.474;10.944;2023-04-24T07:13:36;10.50;99.90
34099;DHT22;20374;49.474;10.944;2023-04-24T07:16:02;10.50;99.90
34099;DHT22;20374;49.474;10.944;2023-04-24T07:18:28;10.80;99.90
34099;DHT22;20374;49.474;10.944;2023-04-24T07:20:54;10.70;99.90
34099;DHT22;20374;49.474;10.944;2023-04-24T07:23:20;10.80;99.90
34099;DHT22;20374;49.474;10.944;2023-04-24T07:25:46;10.70;99.90
34099;DHT22;20374;49.474;10.944;2023-04-24T07:28:12;10.70;99.90
34099;DHT22;20374;49.474;10.944;2023-04-24T07:30:39;10.60;99.90
34099;DHT22;20374;49.474;10.944;2023-04-24T07:33:05;10.50;99.90
34099;DHT22;20374;49.474;10.944;2023-04-24T07:35:33;10.50;99.90
34099;DHT22;20374;49.474;10.944;2023-04-24T07:37:59;10.50;99.90
34099;DHT22;20374;49.474;10.944;2023-04-24T07:40:25;10.70;99.90
34099;DHT22;20374;49.474;10.944;2023-04-24T07:42:51;10.70;99.90
34099;DHT22;20374;49.474;10.944;2023-04-24T07:45:17;10.90;99.90
34099;DHT22;20374;49.474;10.944;2023-04-24T07:47:44;11.20;99.90
34099;DHT22;20374;49.474;10.944;2023-04-24T07:50:11;11.90;99.90
34099;DHT22;20374;49.474;10.944;2023-04-24T07:52:38;12.60;99.90
34099;DHT22;20374;49.474;10.944;2023-04-24T07:55:05;13.20;99.90
34099;DHT22;20374;49.474;10.944;2023-04-24T07:57:31;13.80;99.90
34099;DHT22;20374;49.474;10.944;2023-04-24T07:59:57;14.10;99.90
34099;DHT22;20374;49.474;10.944;2023-04-24T08:02:22;14.00;99.90
34099;DHT22;20374;49.474;10.944;2023-04-24T08:04:55;13.70;99.90
34099;DHT22;20374;49.474;10.944;2023-04-24T08:07:22;13.40;99.90
34099;DHT22;20374;49.474;10.944;2023-04-24T08:09:48;13.60;99.90
34099;DHT22;20374;49.474;10.944;2023-04-24T08:12:14;13.80;99.90
34099;DHT22;20374;49.474;10.944;2023-04-24T08:14:40;13.60;99.90
34099;DHT22;20374;49.474;10.944;2023-04-24T08:17:06;13.30;99.90
34099;DHT22;20374;49.474;10.944;2023-04-24T08:19:32;12.90;99.90
34099;DHT22;20374;49.474;10.944;2023-04-24T08:21:58;12.60;99.90
34099;DHT22;20374;49.474;10.944;2023-04-24T08:24:24;12.50;99.90
34099;DHT22;20374;49.474;10.944;2023-04-24T08:26:50;12.50;99.90
34099;DHT22;20374;49.474;10.944;2023-04-24T08:29:17;12.50;99.90
34099;DHT22;20374;49.474;10.944;2023-04-24T08:31:43;12.70;99.90
34099;DHT22;20374;49.474;10.944;2023-04-24T08:34:09;12.70;99.90
34099;DHT22;20374;49.474;10.944;2023-04-24T08:36:36;12.50;99.90
34099;DHT22;20374;49.474;10.944;2023-04-24T08:39:02;12.30;99.90
34099;DHT22;20374;49.474;10.944;2023-04-24T08:41:28;12.40;99.90
34099;DHT22;20374;49.474;10.944;2023-04-24T08:43:56;12.30;99.90
34099;DHT22;20374;49.474;10.944;2023-04-24T08:46:24;12.40;99.90
34099;DHT22;20374;49.474;10.944;2023-04-24T08:48:52;12.40;99.90
34099;DHT22;20374;49.474;10.944;2023-04-24T08:51:18;12.40;99.90
34099;DHT22;20374;49.474;10.944;2023-04-24T08:53:46;12.20;99.90
34099;DHT22;20374;49.474;10.944;2023-04-24T08:56:13;12.10;99.90
34099;DHT22;20374;49.474;10.944;2023-04-24T08:58:39;11.80;99.90
34099;DHT22;20374;49.474;10.944;2023-04-24T09:01:06;11.80;99.90
34099;DHT22;20374;49.474;10.944;2023-04-24T09:03:33;11.70;99.90
34099;DHT22;20374;49.474;10.944;2023-04-24T09:06:00;11.80;99.90
34099;DHT22;20374;49.474;10.944;2023-04-24T09:08:27;12.20;99.90
34099;DHT22;20374;49.474;10.944;2023-04-24T09:10:53;13.20;99.90
34099;DHT22;20374;49.474;10.944;2023-04-24T09:13:20;13.60;99.90
34099;DHT22;20374;49.474;10.944;2023-04-24T09:15:46;14.00;99.90
34099;DHT22;20374;49.474;10.944;2023-04-24T09:18:12;14.20;99.90
34099;DHT22;20374;49.474;10.944;2023-04-24T09:20:58;14.10;99.90
34099;DHT22;20374;49.474;10.944;2023-04-24T09:23:32;13.50;99.90
34099;DHT22;20374;49.474;10.944;2023-04-24T09:25:59;13.00;99.90
34099;DHT22;20374;49.474;10.944;2023-04-24T09:28:36;12.60;99.90
34099;DHT22;20374;49.474;10.944;2023-04-24T09:33:36;12.70;99.90
34099;DHT22;20374;49.474;10.944;2023-04-24T09:36:03;13.40;99.90
34099;DHT22;20374;49.474;10.944;2023-04-24T09:38:32;14.50;99.90
34099;DHT22;20374;49.474;10.944;2023-04-24T09:41:00;15.10;99.90
34099;DHT22;20374;49.474;10.944;2023-04-24T09:43:28;14.80;99.90
34099;DHT22;20374;49.474;10.944;2023-04-24T09:45:58;15.10;96.60
34099;DHT22;20374;49.474;10.944;2023-04-24T09:48:32;15.40;95.70
34099;DHT22;20374;49.474;10.944;2023-04-24T09:50:58;15.90;95.10
34099;DHT22;20374;49.474;10.944;2023-04-24T09:53:25;16.30;92.80
34099;DHT22;20374;49.474;10.944;2023-04-24T09:55:52;15.80;93.90
34099;DHT22;20374;49.474;10.944;2023-04-24T09:58:24;15.00;91.50
34099;DHT22;20374;49.474;10.944;2023-04-24T10:00:54;15.00;91.50
34099;DHT22;20374;49.474;10.944;2023-04-24T10:03:20;16.10;94.00
34099;DHT22;20374;49.474;10.944;2023-04-24T10:05:47;17.20;86.90
34099;DHT22;20374;49.474;10.944;2023-04-24T10:08:13;17.40;86.50
34099;DHT22;20374;49.474;10.944;2023-04-24T10:10:44;17.60;88.70
34099;DHT22;20374;49.474;10.944;2023-04-24T10:13:13;18.20;86.50
34099;DHT22;20374;49.474;10.944;2023-04-24T10:15:41;18.60;85.40
34099;DHT22;20374;49.474;10.944;2023-04-24T10:18:08;17.50;82.50
34099;DHT22;20374;49.474;10.944;2023-04-24T10:20:37;16.40;83.70
34099;DHT22;20374;49.474;10.944;2023-04-24T10:23:03;15.40;83.30
34099;DHT22;20374;49.474;10.944;2023-04-24T10:25:31;14.90;86.20
34099;DHT22;20374;49.474;10.944;2023-04-24T10:27:58;14.30;90.00
34099;DHT22;20374;49.474;10.944;2023-04-24T10:30:32;13.90;93.50
34099;DHT22;20374;49.474;10.944;2023-04-24T10:33:05;13.50;96.60
34099;DHT22;20374;49.474;10.944;2023-04-24T10:35:37;13.40;98.10
34099;DHT22;20374;49.474;10.944;2023-04-24T10:38:16;13.40;98.10
34099;DHT22;20374;49.474;10.944;2023-04-24T10:40:44;13.00;97.80
34099;DHT22;20374;49.474;10.944;2023-04-24T10:43:10;12.70;98.40
34099;DHT22;20374;49.474;10.944;2023-04-24T10:45:38;12.40;98.30
34099;DHT22;20374;49.474;10.944;2023-04-24T10:48:06;12.10;99.10
34099;DHT22;20374;49.474;10.944;2023-04-24T10:50:51;11.90;99.90
34099;DHT22;20374;49.474;10.944;2023-04-24T10:53:20;11.90;99.90
34099;DHT22;20374;49.474;10.944;2023-04-24T10:58:15;11.80;99.90
34099;DHT22;20374;49.474;10.944;2023-04-24T11:00:43;12.00;99.90
34099;DHT22;20374;49.474;10.944;2023-04-24T11:03:29;11.90;99.80
34099;DHT22;20374;49.474;10.944;2023-04-24T11:06:07;12.10;98.20
34099;DHT22;20374;49.474;10.944;2023-04-24T11:08:40;12.00;95.80
34099;DHT22;20374;49.474;10.944;2023-04-24T11:11:11;12.10;96.40
34099;DHT22;20374;49.474;10.944;2023-04-24T11:22:03;13.80;94.60
34099;DHT22;20374;49.474;10.944;2023-04-24T11:24:37;14.20;93.80
34099;DHT22;20374;49.474;10.944;2023-04-24T11:27:15;14.10;92.40
34099;DHT22;20374;49.474;10.944;2023-04-24T11:32:31;14.40;93.40
34099;DHT22;20374;49.474;10.944;2023-04-24T11:35:19;14.60;93.90
34099;DHT22;20374;49.474;10.944;2023-04-24T11:37:51;14.40;94.20
34099;DHT22;20374;49.474;10.944;2023-04-24T11:40:19;14.20;93.90
34099;DHT22;20374;49.474;10.944;2023-04-24T11:42:50;14.00;94.40
34099;DHT22;20374;49.474;10.944;2023-04-24T11:45:24;13.50;94.60
34099;DHT22;20374;49.474;10.944;2023-04-24T11:47:50;13.30;95.60
34099;DHT22;20374;49.474;10.944;2023-04-24T11:50:22;13.00;95.50
34099;DHT22;20374;49.474;10.944;2023-04-24T11:52:49;13.20;95.70
34099;DHT22;20374;49.474;10.944;2023-04-24T11:57:53;13.70;93.40
34099;DHT22;20374;49.474;10.944;2023-04-24T12:00:22;13.70;92.90
34099;DHT22;20374;49.474;10.944;2023-04-24T12:02:49;13.70;94.80
34099;DHT22;20374;49.474;10.944;2023-04-24T12:05:26;14.00;93.10
34099;DHT22;20374;49.474;10.944;2023-04-24T12:07:53;14.30;92.80
34099;DHT22;20374;49.474;10.944;2023-04-24T12:10:23;14.50;92.00
34099;DHT22;20374;49.474;10.944;2023-04-24T12:12:50;14.80;91.50
34099;DHT22;20374;49.474;10.944;2023-04-24T12:15:18;14.50;91.80
34099;DHT22;20374;49.474;10.944;2023-04-24T12:17:44;14.40;92.10
34099;DHT22;20374;49.474;10.944;2023-04-24T12:20:12;14.50;92.00
34099;DHT22;20374;49.474;10.944;2023-04-24T12:22:51;14.90;91.80
34099;DHT22;20374;49.474;10.944;2023-04-24T12:25:38;15.70;91.90
34099;DHT22;20374;49.474;10.944;2023-04-24T12:30:32;16.40;88.50
34099;DHT22;20374;49.474;10.944;2023-04-24T12:32:59;16.00;88.30
34099;DHT22;20374;49.474;10.944;2023-04-24T12:35:28;15.60;87.40
34099;DHT22;20374;49.474;10.944;2023-04-24T12:37:54;15.30;89.40
34099;DHT22;20374;49.474;10.944;2023-04-24T12:40:21;14.60;90.50
34099;DHT22;20374;49.474;10.944;2023-04-24T12:42:48;14.60;91.30
34099;DHT22;20374;49.474;10.944;2023-04-24T12:45:16;14.40;90.60
34099;DHT22;20374;49.474;10.944;2023-04-24T12:47:43;14.10;90.50
34099;DHT22;20374;49.474;10.944;2023-04-24T12:50:11;13.90;90.60
34099;DHT22;20374;49.474;10.944;2023-04-24T12:52:37;13.90;91.30
34099;DHT22;20374;49.474;10.944;2023-04-24T12:55:05;14.20;92.20
34099;DHT22;20374;49.474;10.944;2023-04-24T12:57:34;15.10;90.70
34099;DHT22;20374;49.474;10.944;2023-04-24T13:00:01;16.10;91.10
34099;DHT22;20374;49.474;10.944;2023-04-24T13:02:28;17.10;85.50
34099;DHT22;20374;49.474;10.944;2023-04-24T13:05:00;17.30;82.80
34099;DHT22;20374;49.474;10.944;2023-04-24T13:07:26;17.40;82.30
34099;DHT22;20374;49.474;10.944;2023-04-24T13:09:54;17.10;83.80
34099;DHT22;20374;49.474;10.944;2023-04-24T13:12:20;16.00;83.70
34099;DHT22;20374;49.474;10.944;2023-04-24T13:14:47;15.00;86.50
34099;DHT22;20374;49.474;10.944;2023-04-24T13:17:13;14.20;88.30
34099;DHT22;20374;49.474;10.944;2023-04-24T13:19:41;13.70;90.60
34099;DHT22;20374;49.474;10.944;2023-04-24T13:22:09;13.40;91.40
34099;DHT22;20374;49.474;10.944;2023-04-24T13:24:35;13.30;93.50
34099;DHT22;20374;49.474;10.944;2023-04-24T13:27:01;13.30;92.90
34099;DHT22;20374;49.474;10.944;2023-04-24T13:29:28;13.20;93.00
34099;DHT22;20374;49.474;10.944;2023-04-24T13:31:55;13.30;93.20
34099;DHT22;20374;49.474;10.944;2023-04-24T13:34:24;13.40;92.60
34099;DHT22;20374;49.474;10.944;2023-04-24T13:36:55;13.60;93.30
34099;DHT22;20374;49.474;10.944;2023-04-24T13:39:24;13.30;91.90
34099;DHT22;20374;49.474;10.944;2023-04-24T13:41:51;12.90;92.20
34099;DHT22;20374;49.474;10.944;2023-04-24T13:44:18;12.50;94.60
34099;DHT22;20374;49.474;10.944;2023-04-24T13:46:46;12.10;95.60
34099;DHT22;20374;49.474;10.944;2023-04-24T13:49:13;11.90;96.10
34099;DHT22;20374;49.474;10.944;2023-04-24T13:51:39;11.90;96.00
34099;DHT22;20374;49.474;10.944;2023-04-24T13:54:09;12.00;96.20
34099;DHT22;20374;49.474;10.944;2023-04-24T13:56:35;12.00;95.40
34099;DHT22;20374;49.474;10.944;2023-04-24T13:59:01;12.50;95.40
34099;DHT22;20374;49.474;10.944;2023-04-24T14:01:27;13.30;94.30
34099;DHT22;20374;49.474;10.944;2023-04-24T14:03:54;14.10;93.50
34099;DHT22;20374;49.474;10.944;2023-04-24T14:06:21;14.40;91.70
34099;DHT22;20374;49.474;10.944;2023-04-24T14:08:47;14.50;91.50
34099;DHT22;20374;49.474;10.944;2023-04-24T14:11:13;14.30;91.60
34099;DHT22;20374;49.474;10.944;2023-04-24T14:13:41;14.10;92.40
34099;DHT22;20374;49.474;10.944;2023-04-24T14:16:08;13.80;92.40
34099;DHT22;20374;49.474;10.944;2023-04-24T14:18:34;13.80;92.90
34099;DHT22;20374;49.474;10.944;2023-04-24T14:21:00;14.00;93.80
34099;DHT22;20374;49.474;10.944;2023-04-24T14:23:27;14.00;92.90
34099;DHT22;20374;49.474;10.944;2023-04-24T14:25:53;14.10;93.60
34099;DHT22;20374;49.474;10.944;2023-04-24T14:28:19;14.30;92.90
34099;DHT22;20374;49.474;10.944;2023-04-24T14:30:46;14.00;93.00
34099;DHT22;20374;49.474;10.944;2023-04-24T14:33:13;13.90;93.20
34099;DHT22;20374;49.474;10.944;2023-04-24T14:35:40;13.60;93.70
34099;DHT22;20374;49.474;10.944;2023-04-24T14:38:06;13.80;93.00
34099;DHT22;20374;49.474;10.944;2023-04-24T14:40:32;13.80;92.20
34099;DHT22;20374;49.474;10.944;2023-04-24T14:42:58;13.70;91.30
34099;DHT22;20374;49.474;10.944;2023-04-24T14:45:25;13.50;92.10
34099;DHT22;20374;49.474;10.944;2023-04-24T14:47:51;13.20;93.10
34099;DHT22;20374;49.474;10.944;2023-04-24T14:50:17;13.40;94.00
34099;DHT22;20374;49.474;10.944;2023-04-24T14:52:43;13.60;93.70
34099;DHT22;20374;49.474;10.944;2023-04-24T14:55:09;13.60;94.20
34099;DHT22;20374;49.474;10.944;2023-04-24T14:57:35;13.60;93.10
34099;DHT22;20374;49.474;10.944;2023-04-24T15:00:03;13.60;93.00
34099;DHT22;20374;49.474;10.944;2023-04-24T15:02:32;13.40;92.60
34099;DHT22;20374;49.474;10.944;2023-04-24T15:04:59;13.20;93.80
34099;DHT22;20374;49.474;10.944;2023-04-24T15:07:25;13.10;94.10
34099;DHT22;20374;49.474;10.944;2023-04-24T15:09:51;13.10;93.80
34099;DHT22;20374;49.474;10.944;2023-04-24T15:12:17;13.00;93.70
34099;DHT22;20374;49.474;10.944;2023-04-24T15:14:43;13.10;93.90
34099;DHT22;20374;49.474;10.944;2023-04-24T15:17:09;12.80;94.00
34099;DHT22;20374;49.474;10.944;2023-04-24T15:19:35;12.60;94.80
34099;DHT22;20374;49.474;10.944;2023-04-24T15:22:01;12.60;95.40
34099;DHT22;20374;49.474;10.944;2023-04-24T15:24:27;12.70;95.60
34099;DHT22;20374;49.474;10.944;2023-04-24T15:26:53;13.10;96.30
34099;DHT22;20374;49.474;10.944;2023-04-24T15:29:19;13.50;95.00
34099;DHT22;20374;49.474;10.944;2023-04-24T15:31:45;13.80;94.80
34099;DHT22;20374;49.474;10.944;2023-04-24T15:34:11;13.70;93.10
34099;DHT22;20374;49.474;10.944;2023-04-24T15:36:37;13.60;92.80
34099;DHT22;20374;49.474;10.944;2023-04-24T15:39:03;13.30;93.30
34099;DHT22;20374;49.474;10.944;2023-04-24T15:41:29;13.20;93.00
34099;DHT22;20374;49.474;10.944;2023-04-24T15:43:57;13.20;93.80
34099;DHT22;20374;49.474;10.944;2023-04-24T15:46:23;13.10;93.20